In Rescue
 
Open Full Screen Window  High Contrast Mode
Wind Gusting 18 knots
15
January 18, 2019 8:20 AM CST
Present Weather: Snow
Weather Information
Wind Direction
  060 °
Wind Speed
  15 kt (17 mph)
Wind Gust
  18 kt (21 mph)
Altimeter
30.07 in
Visibility
1/2 SM
Temperature
-13° C
F
Dewpoint
-13° C
F
Humidity
100%
1hr Rain Fall
00.22 in.
24hr Rain Fall
01.58 in.
Sky Condition
Missing
IFR

METAR KMDS 181420Z AUTO 06015G18KT 1/2SM SN M13/M13 A3007 RMK AO2 P0022

FAA Disclaimer: The data displayed is for advisory purposes only and is not to be used for flight planning or operations.
Missing Cloud Data